Niagara Falls International Airport Niagara Falls US
ICAO: KIAG
IATA: IAG
Category: Medium
Scheduled Services: No

Elevation: 589 ft
TransAlt. 18000 ft.

Airport Communications:
BUFFALO APP/DEP:126.5
ATIS:120.8
CLNC DEL:119.25
CTAF:118.5
GND:121.7
ANG OPS:26.19
914 AW COMD POST:34.002
PTD:37.22
TWR:118.5
UNICOM:122.95

KIAG Zoom In..

If you have problems with the map follow the link
https://www.worldairports.se/pages/airport.php?
ICAO=KIAG

Runways:

(A) RW 06 length 5188 ft width 150 ft
---- / hdg 60

(B) RW 10L length 9829 ft width 150 ft
---- / hdg 100

(C) RW 10R length 3973 ft width 75 ft
---- / hdg 100

(D) RW 24 length 5188 ft width 150 ft
---- / hdg 240

(E) RW 28L length 3973 ft width 75 ft
---- / hdg 280

(F) RW 28R length 9829 ft width 150 ft
ILS 110.10 / hdg 280

Location; KIAG
Day. 18 / Time. 07.28 Zulu
* Altimeter: 30.32
* Temperature: 03° c. 37.4°f.
* Wind from: 340° Speed 11 kn.
Dewpoint: -03° c.
Visibility: 10 Statute Miles.
Clouds: Scattered 2800 ft.
Clouds: Broken 3600 ft.
Clouds: Overcast 4800 ft.

KIAG 180728Z AUTO 34011KT 10SM UP SCT028 BKN036 OVC048 03/M03 A3032 RMK AO2 RAB08E12B23E25UPB25SNB12E23 P0000 T00281028


Wind From 340°
Speed 11 kn.

 
 
jpsmedia.com for Web Design worldairports.se 2018   terms of use